Time,TemperatureF,DewpointF,PressureIn,WindDirection,WindDirectionDegrees,WindSpeedMPH,WindSpeedGustMPH,Humidity,HourlyPrecipIn,Conditions,Clouds,dailyrainin,SoftwareType,DateUTC
2013-07-23 00:03:00,58.6,40.1,29.44,South,185,0.0,0.0,50,0.00,,CLR,0.00,VWS V14.00,2013-07-23 07:03:00,
2013-07-23 00:08:00,58.5,39.9,29.44,South,185,0.0,0.0,50,0.00,,CLR,0.00,VWS V14.00,2013-07-23 07:08:00,
2013-07-23 00:14:00,58.5,40.4,29.44,South,185,0.0,0.0,51,0.00,,CLR,0.00,VWS V14.00,2013-07-23 07:14:00,
2013-07-23 00:19:00,58.3,40.2,29.44,South,185,0.0,0.0,51,0.00,,CLR,0.00,VWS V14.00,2013-07-23 07:19:00,
2013-07-23 00:24:00,58.3,40.2,29.44,South,185,0.0,0.0,51,0.00,,CLR,0.00,VWS V14.00,2013-07-23 07:24:00,
2013-07-23 00:30:00,58.1,40.1,29.44,South,185,0.0,0.0,51,0.00,,CLR,0.00,VWS V14.00,2013-07-23 07:30:00,
2013-07-23 00:35:00,58.1,40.6,29.44,South,185,0.0,0.0,52,0.00,,CLR,0.00,VWS V14.00,2013-07-23 07:35:00,
2013-07-23 00:41:00,57.9,40.4,29.44,South,185,0.0,0.0,52,0.00,,CLR,0.00,VWS V14.00,2013-07-23 07:41:00,
2013-07-23 00:46:00,57.7,40.2,29.44,South,185,0.0,0.0,52,0.00,,CLR,0.00,VWS V14.00,2013-07-23 07:46:00,
2013-07-23 00:52:00,57.6,40.1,29.44,South,185,0.0,0.0,52,0.00,,CLR,0.00,VWS V14.00,2013-07-23 07:52:00,
2013-07-23 00:57:00,57.6,40.1,29.44,South,185,0.0,0.0,52,0.00,,CLR,0.00,VWS V14.00,2013-07-23 07:57:00,
2013-07-23 01:03:00,57.4,40.4,29.44,South,185,0.0,0.0,53,0.00,,CLR,0.00,VWS V14.00,2013-07-23 08:03:00,
2013-07-23 01:09:00,57.4,40.4,29.44,South,185,0.0,0.0,53,0.00,,CLR,0.00,VWS V14.00,2013-07-23 08:09:00,
2013-07-23 01:14:00,57.4,40.9,29.44,South,185,0.0,0.0,54,0.00,,CLR,0.00,VWS V14.00,2013-07-23 08:14:00,
2013-07-23 01:19:00,57.4,40.9,29.44,South,185,0.0,0.0,54,0.00,,CLR,0.00,VWS V14.00,2013-07-23 08:19:00,
2013-07-23 01:24:00,57.4,40.9,29.44,South,185,0.0,0.0,54,0.00,,CLR,0.00,VWS V14.00,2013-07-23 08:24:00,
2013-07-23 01:29:00,57.2,41.2,29.44,South,185,0.0,0.0,55,0.00,,CLR,0.00,VWS V14.00,2013-07-23 08:29:00,
2013-07-23 01:35:00,57.2,41.2,29.44,South,185,0.0,0.0,55,0.00,,CLR,0.00,VWS V14.00,2013-07-23 08:35:00,
2013-07-23 01:40:00,57.0,41.0,29.44,South,185,0.0,0.0,55,0.00,,CLR,0.00,VWS V14.00,2013-07-23 08:40:00,
2013-07-23 01:45:00,56.8,40.9,29.44,South,185,0.0,0.0,55,0.00,,CLR,0.00,VWS V14.00,2013-07-23 08:45:00,
2013-07-23 01:51:00,56.7,40.7,29.44,South,185,0.0,0.0,55,0.00,,CLR,0.00,VWS V14.00,2013-07-23 08:51:00,
2013-07-23 01:56:00,56.7,41.2,29.44,South,185,0.0,0.0,56,0.00,,CLR,0.00,VWS V14.00,2013-07-23 08:56:00,
2013-07-23 02:01:00,56.7,41.2,29.44,South,185,0.0,0.0,56,0.00,,CLR,0.00,VWS V14.00,2013-07-23 09:01:00,
2013-07-23 02:07:00,56.5,41.0,29.44,South,185,0.0,0.0,56,0.00,,CLR,0.00,VWS V14.00,2013-07-23 09:07:00,
2013-07-23 02:13:00,56.5,41.5,29.44,South,185,0.0,0.0,57,0.00,,CLR,0.00,VWS V14.00,2013-07-23 09:13:00,
2013-07-23 02:18:00,56.5,41.5,29.44,South,185,0.0,0.0,57,0.00,,CLR,0.00,VWS V14.00,2013-07-23 09:18:00,
2013-07-23 02:23:00,56.3,41.3,29.44,South,185,0.0,0.0,57,0.00,,CLR,0.00,VWS V14.00,2013-07-23 09:23:00,
2013-07-23 02:29:00,56.3,41.7,29.44,South,185,0.0,0.0,58,0.00,,CLR,0.00,VWS V14.00,2013-07-23 09:29:00,
2013-07-23 02:35:00,56.3,41.7,29.44,South,185,0.0,0.0,58,0.00,,CLR,0.00,VWS V14.00,2013-07-23 09:35:00,
2013-07-23 02:41:00,56.3,41.7,29.44,South,185,0.0,0.0,58,0.00,,CLR,0.00,VWS V14.00,2013-07-23 09:41:00,
2013-07-23 02:47:00,56.7,42.5,29.44,South,185,0.0,0.0,59,0.00,,CLR,0.00,VWS V14.00,2013-07-23 09:47:00,
2013-07-23 02:52:00,56.8,43.1,29.44,South,185,0.0,0.0,60,0.00,,CLR,0.00,VWS V14.00,2013-07-23 09:52:00,
2013-07-23 02:58:00,57.0,43.7,29.44,WNW,283,0.0,0.0,61,0.00,,CLR,0.00,VWS V14.00,2013-07-23 09:58:00,
2013-07-23 03:03:00,57.6,44.2,29.44,West,274,2.7,3.1,61,0.00,,CLR,0.00,VWS V14.00,2013-07-23 10:03:00,
2013-07-23 03:09:00,58.1,45.2,29.44,West,273,0.0,0.0,62,0.00,,CLR,0.00,VWS V14.00,2013-07-23 10:09:00,
2013-07-23 03:15:00,58.5,45.5,29.44,West,273,0.0,0.0,62,0.00,,CLR,0.00,VWS V14.00,2013-07-23 10:15:00,
2013-07-23 03:20:00,58.5,45.5,29.44,West,273,0.0,0.0,62,0.00,,CLR,0.00,VWS V14.00,2013-07-23 10:20:00,
2013-07-23 03:26:00,58.3,45.3,29.44,West,273,0.0,0.0,62,0.00,,CLR,0.00,VWS V14.00,2013-07-23 10:26:00,
2013-07-23 03:31:00,58.1,45.2,29.47,West,273,0.0,0.0,62,0.00,,CLR,0.00,VWS V14.00,2013-07-23 10:31:00,
2013-07-23 03:36:00,57.7,44.4,29.47,West,273,0.0,0.0,61,0.00,,CLR,0.00,VWS V14.00,2013-07-23 10:36:00,
2013-07-23 03:41:00,57.6,44.2,29.47,West,273,0.0,0.0,61,0.00,,CLR,0.00,VWS V14.00,2013-07-23 10:41:00,
2013-07-23 03:47:00,57.2,43.5,29.44,West,273,0.0,0.0,60,0.00,,CLR,0.00,VWS V14.00,2013-07-23 10:47:00,
2013-07-23 03:52:00,56.8,43.1,29.44,West,273,0.0,0.0,60,0.00,,CLR,0.00,VWS V14.00,2013-07-23 10:52:00,
2013-07-23 03:58:00,56.7,43.0,29.44,West,273,0.0,0.0,60,0.00,,CLR,0.00,VWS V14.00,2013-07-23 10:58:00,
2013-07-23 04:03:00,56.5,42.8,29.44,West,273,0.0,0.0,60,0.00,,CLR,0.00,VWS V14.00,2013-07-23 11:03:00,
2013-07-23 04:08:00,56.3,42.6,29.44,West,273,0.0,0.0,60,0.00,,CLR,0.00,VWS V14.00,2013-07-23 11:08:00,
2013-07-23 04:13:00,56.1,42.4,29.44,West,273,0.0,0.0,60,0.00,,CLR,0.00,VWS V14.00,2013-07-23 11:13:00,
2013-07-23 04:19:00,55.9,42.3,29.44,West,273,0.0,0.0,60,0.00,,CLR,0.00,VWS V14.00,2013-07-23 11:19:00,
2013-07-23 04:25:00,55.8,42.1,29.44,West,273,0.0,0.0,60,0.00,,CLR,0.00,VWS V14.00,2013-07-23 11:25:00,
2013-07-23 04:30:00,55.6,41.9,29.47,West,273,0.0,0.0,60,0.00,,CLR,0.00,VWS V14.00,2013-07-23 11:30:00,
2013-07-23 04:36:00,55.4,41.8,29.47,West,273,0.0,0.0,60,0.00,,CLR,0.00,VWS V14.00,2013-07-23 11:36:00,
2013-07-23 04:41:00,55.2,41.6,29.47,West,273,0.0,0.0,60,0.00,,CLR,0.00,VWS V14.00,2013-07-23 11:41:00,
2013-07-23 04:46:00,55.2,42.0,29.47,West,273,0.0,0.0,61,0.00,,CLR,0.00,VWS V14.00,2013-07-23 11:46:00,
2013-07-23 04:51:00,55.2,42.0,29.47,West,273,0.0,0.0,61,0.00,,CLR,0.00,VWS V14.00,2013-07-23 11:51:00,
2013-07-23 04:57:00,55.2,42.0,29.47,West,273,0.0,0.0,61,0.00,,CLR,0.00,VWS V14.00,2013-07-23 11:57:00,
2013-07-23 05:02:00,55.4,42.2,29.47,West,273,0.0,0.0,61,0.00,,CLR,0.00,VWS V14.00,2013-07-23 12:02:00,
2013-07-23 05:07:00,55.6,42.8,29.47,West,273,0.0,0.0,62,0.00,,CLR,0.00,VWS V14.00,2013-07-23 12:07:00,
2013-07-23 05:13:00,55.4,42.6,29.47,West,273,0.0,0.0,62,0.00,,CLR,0.00,VWS V14.00,2013-07-23 12:13:00,
2013-07-23 05:19:00,55.2,42.9,29.47,West,273,0.0,0.0,63,0.00,,CLR,0.00,VWS V14.00,2013-07-23 12:19:00,
2013-07-23 05:25:00,55.0,42.3,29.47,West,273,0.0,0.0,62,0.00,,CLR,0.00,VWS V14.00,2013-07-23 12:25:00,
2013-07-23 05:31:00,54.7,41.9,29.47,West,273,0.0,0.0,62,0.00,,CLR,0.00,VWS V14.00,2013-07-23 12:31:00,
2013-07-23 05:36:00,54.5,41.8,29.47,West,273,0.0,0.0,62,0.00,,CLR,0.00,VWS V14.00,2013-07-23 12:36:00,
2013-07-23 05:42:00,54.5,42.2,29.47,West,273,0.0,0.0,63,0.00,,CLR,0.00,VWS V14.00,2013-07-23 12:42:00,
2013-07-23 05:47:00,54.3,42.0,29.47,West,273,0.0,0.0,63,0.00,,CLR,0.00,VWS V14.00,2013-07-23 12:47:00,
2013-07-23 05:53:00,54.3,42.0,29.47,West,273,0.0,0.0,63,0.00,,CLR,0.00,VWS V14.00,2013-07-23 12:53:00,
2013-07-23 05:58:00,54.1,41.8,29.47,West,273,0.0,0.0,63,0.00,,CLR,0.00,VWS V14.00,2013-07-23 12:58:00,
2013-07-23 06:03:00,54.1,41.8,29.47,West,273,0.0,0.0,63,0.00,,CLR,0.00,VWS V14.00,2013-07-23 13:03:00,
2013-07-23 06:09:00,54.1,41.8,29.47,West,273,0.0,0.0,63,0.00,,CLR,0.00,VWS V14.00,2013-07-23 13:09:00,
2013-07-23 06:14:00,54.1,41.8,29.47,West,273,0.0,0.0,63,0.00,,CLR,0.00,VWS V14.00,2013-07-23 13:14:00,
2013-07-23 06:19:00,54.1,41.8,29.47,West,273,0.0,0.0,63,0.00,,CLR,0.00,VWS V14.00,2013-07-23 13:19:00,
2013-07-23 06:24:00,54.3,42.4,29.47,West,273,0.0,0.0,64,0.00,,CLR,0.00,VWS V14.00,2013-07-23 13:24:00,
2013-07-23 06:29:00,54.3,42.4,29.47,West,273,0.0,0.0,64,0.00,,CLR,0.00,VWS V14.00,2013-07-23 13:29:00,
2013-07-23 06:35:00,54.5,42.6,29.47,West,273,0.0,0.0,64,0.00,,CLR,0.00,VWS V14.00,2013-07-23 13:35:00,
2013-07-23 06:40:00,54.5,42.6,29.47,West,273,0.0,0.0,64,0.00,,CLR,0.00,VWS V14.00,2013-07-23 13:40:00,
2013-07-23 06:45:00,54.7,43.2,29.47,West,273,0.0,0.0,65,0.00,,CLR,0.00,VWS V14.00,2013-07-23 13:45:00,
2013-07-23 06:51:00,55.0,43.5,29.47,West,273,0.0,0.0,65,0.00,,CLR,0.00,VWS V14.00,2013-07-23 13:51:00,
2013-07-23 06:56:00,55.2,43.7,29.47,West,273,0.0,0.0,65,0.00,,CLR,0.00,VWS V14.00,2013-07-23 13:56:00,
2013-07-23 07:01:00,55.6,44.0,29.47,West,273,0.0,0.0,65,0.00,,CLR,0.00,VWS V14.00,2013-07-23 14:01:00,
2013-07-23 07:06:00,55.8,44.2,29.47,West,273,0.0,0.0,65,0.00,,CLR,0.00,VWS V14.00,2013-07-23 14:06:00,
2013-07-23 07:12:00,55.9,44.8,29.47,West,273,0.0,0.0,66,0.00,,CLR,0.00,VWS V14.00,2013-07-23 14:12:00,
2013-07-23 07:17:00,56.3,45.1,29.47,West,273,0.0,0.0,66,0.00,,CLR,0.00,VWS V14.00,2013-07-23 14:17:00,
2013-07-23 07:22:00,56.7,45.4,29.47,West,273,0.0,0.0,66,0.00,,CLR,0.00,VWS V14.00,2013-07-23 14:22:00,
2013-07-23 07:27:00,56.8,46.0,29.47,West,273,0.0,0.0,67,0.00,,CLR,0.00,VWS V14.00,2013-07-23 14:27:00,
2013-07-23 07:33:00,57.6,46.7,29.47,West,273,0.0,0.0,67,0.00,,CLR,0.00,VWS V14.00,2013-07-23 14:33:00,
2013-07-23 07:38:00,57.9,47.0,29.47,West,273,0.0,0.0,67,0.00,,CLR,0.00,VWS V14.00,2013-07-23 14:38:00,
2013-07-23 07:44:00,58.5,48.0,29.47,WSW,243,0.0,0.0,68,0.00,,CLR,0.00,VWS V14.00,2013-07-23 14:44:00,
2013-07-23 07:49:00,58.8,48.3,29.47,WSW,241,0.0,0.0,68,0.00,,CLR,0.00,VWS V14.00,2013-07-23 14:49:00,
2013-07-23 07:54:00,59.2,48.6,29.47,SW,234,0.0,0.0,68,0.00,,CLR,0.00,VWS V14.00,2013-07-23 14:54:00,
2013-07-23 07:59:00,59.7,49.2,29.47,South,186,0.0,0.0,68,0.00,,CLR,0.00,VWS V14.00,2013-07-23 14:59:00,
2013-07-23 08:04:00,60.4,49.8,29.47,South,183,0.0,0.0,68,0.00,,CLR,0.00,VWS V14.00,2013-07-23 15:04:00,
2013-07-23 08:10:00,61.0,50.4,29.47,South,189,3.6,3.6,68,0.00,,CLR,0.00,VWS V14.00,2013-07-23 15:10:00,
2013-07-23 08:15:00,61.5,50.5,29.47,SSW,193,0.0,2.2,67,0.00,,CLR,0.00,VWS V14.00,2013-07-23 15:15:00,
2013-07-23 08:20:00,61.9,50.4,29.47,SSE,152,2.2,2.7,66,0.00,,CLR,0.00,VWS V14.00,2013-07-23 15:20:00,
2013-07-23 08:26:00,62.4,49.7,29.47,SSW,200,0.0,0.0,63,0.00,,CLR,0.00,VWS V14.00,2013-07-23 15:26:00,
2013-07-23 08:31:00,62.8,48.7,29.47,SSW,200,0.0,0.0,60,0.00,,CLR,0.00,VWS V14.00,2013-07-23 15:31:00,
2013-07-23 08:36:00,63.0,48.0,29.47,SSW,208,0.0,2.2,58,0.00,,CLR,0.00,VWS V14.00,2013-07-23 15:36:00,
2013-07-23 08:41:00,63.3,46.9,29.47,SSW,198,0.0,0.0,55,0.00,,CLR,0.00,VWS V14.00,2013-07-23 15:41:00,
2013-07-23 08:47:00,63.7,45.8,29.47,SW,216,0.0,0.0,52,0.00,,CLR,0.00,VWS V14.00,2013-07-23 15:47:00,
2013-07-23 08:52:00,64.0,45.0,29.47,SSW,200,0.0,3.6,50,0.00,,CLR,0.00,VWS V14.00,2013-07-23 15:52:00,
2013-07-23 08:57:00,64.4,43.8,29.47,SSW,198,0.0,0.0,47,0.00,,CLR,0.00,VWS V14.00,2013-07-23 15:57:00,
2013-07-23 09:03:00,64.8,43.0,29.47,SE,129,0.0,0.0,45,0.00,,CLR,0.00,VWS V14.00,2013-07-23 16:03:00,
2013-07-23 09:09:00,65.1,42.1,29.47,SE,137,0.0,0.0,43,0.00,,CLR,0.00,VWS V14.00,2013-07-23 16:09:00,
2013-07-23 09:14:00,65.5,41.8,29.47,SSW,209,2.7,3.1,42,0.00,,CLR,0.00,VWS V14.00,2013-07-23 16:14:00,
2013-07-23 09:19:00,66.0,41.7,29.47,SSW,205,0.0,0.0,41,0.00,,CLR,0.00,VWS V14.00,2013-07-23 16:19:00,
2013-07-23 09:24:00,66.2,39.9,29.47,SE,135,0.0,2.7,38,0.00,,CLR,0.00,VWS V14.00,2013-07-23 16:24:00,
2013-07-23 09:30:00,66.7,39.7,29.47,South,179,0.0,0.0,37,0.00,,CLR,0.00,VWS V14.00,2013-07-23 16:30:00,
2013-07-23 09:35:00,66.9,39.1,29.47,SSW,197,0.0,0.0,36,0.00,,CLR,0.00,VWS V14.00,2013-07-23 16:35:00,
2013-07-23 09:40:00,67.3,39.4,29.47,East,80,0.0,0.0,36,0.00,,CLR,0.00,VWS V14.00,2013-07-23 16:40:00,
2013-07-23 09:46:00,67.6,39.0,29.47,SE,127,2.7,2.7,35,0.00,,CLR,0.00,VWS V14.00,2013-07-23 16:46:00,
2013-07-23 09:51:00,67.8,38.5,29.47,SE,129,0.0,3.1,34,0.00,,CLR,0.00,VWS V14.00,2013-07-23 16:51:00,
2013-07-23 09:57:00,68.2,38.8,29.47,NNE,29,0.0,0.0,34,0.00,,CLR,0.00,VWS V14.00,2013-07-23 16:57:00,
2013-07-23 10:02:00,68.5,38.3,29.47,SE,144,2.7,3.6,33,0.00,,CLR,0.00,VWS V14.00,2013-07-23 17:02:00,
2013-07-23 10:07:00,68.7,38.5,29.47,SE,138,0.0,0.0,33,0.00,,CLR,0.00,VWS V14.00,2013-07-23 17:07:00,
2013-07-23 10:12:00,69.1,38.8,29.47,SSE,163,2.7,2.7,33,0.00,,CLR,0.00,VWS V14.00,2013-07-23 17:12:00,
2013-07-23 10:17:00,69.4,39.1,29.47,SW,232,0.0,0.0,33,0.00,,CLR,0.00,VWS V14.00,2013-07-23 17:17:00,
2013-07-23 10:23:00,70.2,39.0,29.47,ESE,106,0.0,2.7,32,0.00,,CLR,0.00,VWS V14.00,2013-07-23 17:23:00,
2013-07-23 10:28:00,70.5,39.3,29.47,SSE,157,2.7,2.7,32,0.00,,CLR,0.00,VWS V14.00,2013-07-23 17:28:00,
2013-07-23 10:33:00,70.9,37.1,29.47,SE,144,0.0,3.6,29,0.00,,CLR,0.00,VWS V14.00,2013-07-23 17:33:00,
2013-07-23 10:38:00,71.1,38.1,29.47,SE,136,3.6,3.6,30,0.00,,CLR,0.00,VWS V14.00,2013-07-23 17:38:00,
2013-07-23 10:43:00,71.2,37.4,29.47,SSE,164,0.0,0.0,29,0.00,,CLR,0.00,VWS V14.00,2013-07-23 17:43:00,
2013-07-23 10:48:00,71.4,37.5,29.47,SSE,167,0.0,0.0,29,0.00,,CLR,0.00,VWS V14.00,2013-07-23 17:48:00,
2013-07-23 10:55:00,72.0,38.0,29.47,SSW,192,0.0,0.0,29,0.00,,CLR,0.00,VWS V14.00,2013-07-23 17:55:00,
2013-07-23 11:01:00,72.3,38.3,29.47,SE,130,2.7,3.1,29,0.00,,CLR,0.00,VWS V14.00,2013-07-23 18:01:00,
2013-07-23 11:06:00,72.7,37.7,29.47,SSW,193,4.0,4.0,28,0.00,,CLR,0.00,VWS V14.00,2013-07-23 18:06:00,
2013-07-23 11:11:00,73.2,37.3,29.47,South,177,0.0,0.0,27,0.00,,CLR,0.00,VWS V14.00,2013-07-23 18:11:00,
2013-07-23 11:16:00,73.8,37.7,29.47,South,187,0.0,2.7,27,0.00,,CLR,0.00,VWS V14.00,2013-07-23 18:16:00,
2013-07-23 11:22:00,74.1,37.1,29.47,SSE,164,0.0,0.0,26,0.00,,CLR,0.00,VWS V14.00,2013-07-23 18:22:00,
2013-07-23 11:28:00,74.7,36.5,29.47,SSE,154,0.0,0.0,25,0.00,,CLR,0.00,VWS V14.00,2013-07-23 18:28:00,
2013-07-23 11:33:00,75.0,36.8,29.47,SSW,194,0.0,3.6,25,0.00,,CLR,0.00,VWS V14.00,2013-07-23 18:33:00,
2013-07-23 11:39:00,75.0,35.8,29.47,SSW,211,2.2,6.3,24,0.00,,CLR,0.00,VWS V14.00,2013-07-23 18:39:00,
2013-07-23 11:45:00,75.0,35.8,29.47,ESE,123,0.0,0.0,24,0.00,,CLR,0.00,VWS V14.00,2013-07-23 18:45:00,
2013-07-23 11:51:00,75.2,36.0,29.47,SW,221,0.0,3.1,24,0.00,,CLR,0.00,VWS V14.00,2013-07-23 18:51:00,
2013-07-23 11:56:00,75.7,36.4,29.47,NW,315,0.0,2.7,24,0.00,,CLR,0.00,VWS V14.00,2013-07-23 18:56:00,
2013-07-23 12:01:00,76.1,35.7,29.47,South,190,0.0,0.0,23,0.00,,CLR,0.00,VWS V14.00,2013-07-23 19:01:00,
2013-07-23 12:07:00,76.3,35.8,29.47,SW,229,3.6,3.6,23,0.00,,CLR,0.00,VWS V14.00,2013-07-23 19:07:00,
2013-07-23 12:12:00,76.5,36.0,29.47,SSE,148,3.1,3.1,23,0.00,,CLR,0.00,VWS V14.00,2013-07-23 19:12:00,
2013-07-23 12:18:00,76.6,36.1,29.44,SW,233,0.0,2.7,23,0.00,,CLR,0.00,VWS V14.00,2013-07-23 19:18:00,
2013-07-23 12:23:00,77.0,36.4,29.44,North,357,2.7,3.1,23,0.00,,CLR,0.00,VWS V14.00,2013-07-23 19:23:00,
2013-07-23 12:29:00,77.2,35.4,29.44,ENE,70,0.0,4.0,22,0.00,,CLR,0.00,VWS V14.00,2013-07-23 19:29:00,
2013-07-23 12:34:00,77.7,35.9,29.44,SSW,212,2.7,3.6,22,0.00,,CLR,0.00,VWS V14.00,2013-07-23 19:34:00,
2013-07-23 12:39:00,77.7,35.9,29.44,SSE,151,0.0,4.0,22,0.00,,CLR,0.00,VWS V14.00,2013-07-23 19:39:00,
2013-07-23 12:45:00,77.7,35.9,29.44,ESE,122,0.0,4.0,22,0.00,,CLR,0.00,VWS V14.00,2013-07-23 19:45:00,
2013-07-23 12:50:00,78.1,36.2,29.44,SSE,162,0.0,0.0,22,0.00,,CLR,0.00,VWS V14.00,2013-07-23 19:50:00,
2013-07-23 12:55:00,78.8,36.8,29.44,South,176,0.0,2.2,22,0.00,,CLR,0.00,VWS V14.00,2013-07-23 19:55:00,
2013-07-23 13:00:00,79.3,36.0,29.44,ESE,122,0.0,0.0,21,0.00,,CLR,0.00,VWS V14.00,2013-07-23 20:00:00,
2013-07-23 13:06:00,79.5,36.2,29.44,NW,321,0.0,3.6,21,0.00,,CLR,0.00,VWS V14.00,2013-07-23 20:06:00,
2013-07-23 13:12:00,79.7,36.3,29.44,SSE,155,2.7,3.6,21,0.00,,CLR,0.00,VWS V14.00,2013-07-23 20:12:00,
2013-07-23 13:17:00,79.9,36.5,29.44,East,92,0.0,3.1,21,0.00,,CLR,0.00,VWS V14.00,2013-07-23 20:17:00,
2013-07-23 13:22:00,80.2,36.8,29.44,SE,144,3.6,3.6,21,0.00,,CLR,0.00,VWS V14.00,2013-07-23 20:22:00,
2013-07-23 13:28:00,80.2,36.8,29.44,SW,222,0.0,2.2,21,0.00,,CLR,0.00,VWS V14.00,2013-07-23 20:28:00,
2013-07-23 13:33:00,80.6,35.9,29.44,South,183,3.1,5.8,20,0.00,,CLR,0.00,VWS V14.00,2013-07-23 20:33:00,
2013-07-23 13:38:00,80.6,35.9,29.44,South,181,4.0,4.0,20,0.00,,CLR,0.00,VWS V14.00,2013-07-23 20:38:00,
2013-07-23 13:44:00,80.4,37.0,29.44,NNW,327,2.7,4.0,21,0.00,,CLR,0.00,VWS V14.00,2013-07-23 20:44:00,
2013-07-23 13:51:00,80.6,35.9,29.44,South,187,4.9,6.3,20,0.00,,CLR,0.00,VWS V14.00,2013-07-23 20:51:00,
2013-07-23 13:56:00,80.6,35.9,29.44,SSW,199,2.2,2.7,20,0.00,,CLR,0.00,VWS V14.00,2013-07-23 20:56:00,
2013-07-23 14:01:00,80.6,35.9,29.44,South,190,0.0,0.0,20,0.00,,CLR,0.00,VWS V14.00,2013-07-23 21:01:00,
2013-07-23 14:07:00,81.9,36.9,29.44,SW,218,2.7,2.7,20,0.00,,CLR,0.00,VWS V14.00,2013-07-23 21:07:00,
2013-07-23 14:12:00,82.6,37.5,29.44,South,190,3.1,4.0,20,0.00,,CLR,0.00,VWS V14.00,2013-07-23 21:12:00,
2013-07-23 14:18:00,82.9,37.8,29.44,East,92,2.7,3.1,20,0.00,,CLR,0.00,VWS V14.00,2013-07-23 21:18:00,
2013-07-23 14:24:00,83.3,36.8,29.44,SE,126,2.7,3.6,19,0.00,,CLR,0.00,VWS V14.00,2013-07-23 21:24:00,
2013-07-23 14:30:00,83.5,36.9,29.44,North,3,2.2,8.1,19,0.00,,CLR,0.00,VWS V14.00,2013-07-23 21:30:00,
2013-07-23 14:35:00,83.7,37.1,29.44,South,182,0.0,0.0,19,0.00,,CLR,0.00,VWS V14.00,2013-07-23 21:35:00,
2013-07-23 14:41:00,83.7,37.1,29.44,SSW,200,0.0,3.1,19,0.00,,CLR,0.00,VWS V14.00,2013-07-23 21:41:00,
2013-07-23 14:46:00,83.5,36.9,29.41,ESE,106,2.7,2.7,19,0.00,,CLR,0.00,VWS V14.00,2013-07-23 21:46:00,
2013-07-23 14:52:00,83.3,36.8,29.41,West,281,4.0,4.0,19,0.00,,CLR,0.00,VWS V14.00,2013-07-23 21:52:00,
2013-07-23 14:57:00,83.3,36.8,29.41,SE,130,0.0,4.0,19,0.00,,CLR,0.00,VWS V14.00,2013-07-23 21:57:00,
2013-07-23 15:03:00,83.3,36.8,29.41,SW,224,3.6,3.6,19,0.00,,CLR,0.00,VWS V14.00,2013-07-23 22:03:00,
2013-07-23 15:09:00,83.7,37.1,29.41,SE,134,0.0,2.7,19,0.00,,CLR,0.00,VWS V14.00,2013-07-23 22:09:00,
2013-07-23 15:14:00,84.2,37.5,29.41,SW,235,2.2,5.4,19,0.00,,CLR,0.00,VWS V14.00,2013-07-23 22:14:00,
2013-07-23 15:19:00,84.7,38.0,29.41,SSE,161,3.6,4.5,19,0.00,,CLR,0.00,VWS V14.00,2013-07-23 22:19:00,
2013-07-23 15:24:00,84.6,36.4,29.41,WNW,292,3.1,3.1,18,0.00,,CLR,0.00,VWS V14.00,2013-07-23 22:24:00,
2013-07-23 15:29:00,84.9,36.7,29.41,SE,144,0.0,2.2,18,0.00,,CLR,0.00,VWS V14.00,2013-07-23 22:29:00,
2013-07-23 15:35:00,85.5,37.2,29.41,SE,145,3.1,3.1,18,0.00,,CLR,0.00,VWS V14.00,2013-07-23 22:35:00,
2013-07-23 15:41:00,85.5,37.2,29.41,ESE,103,3.1,4.0,18,0.00,,CLR,0.00,VWS V14.00,2013-07-23 22:41:00,
2013-07-23 15:46:00,85.5,37.2,29.41,South,182,2.2,3.6,18,0.00,,CLR,0.00,VWS V14.00,2013-07-23 22:46:00,
2013-07-23 15:52:00,85.5,37.2,29.41,South,182,2.2,3.1,18,0.00,,CLR,0.00,VWS V14.00,2013-07-23 22:52:00,
2013-07-23 15:57:00,84.9,36.7,29.41,SW,230,2.2,2.7,18,0.00,,CLR,0.00,VWS V14.00,2013-07-23 22:57:00,
2013-07-23 16:03:00,85.1,36.9,29.41,South,182,3.1,3.1,18,0.00,,CLR,0.00,VWS V14.00,2013-07-23 23:03:00,
2013-07-23 16:09:00,85.1,33.9,29.41,South,169,0.0,0.0,16,0.00,,CLR,0.00,VWS V14.00,2013-07-23 23:09:00,
2013-07-23 16:15:00,85.5,34.2,29.41,ENE,62,2.2,2.7,16,0.00,,CLR,0.00,VWS V14.00,2013-07-23 23:15:00,
2013-07-23 16:20:00,85.6,34.3,29.41,NE,54,3.6,3.6,16,0.00,,CLR,0.00,VWS V14.00,2013-07-23 23:20:00,
2013-07-23 16:26:00,85.5,34.2,29.41,SSE,159,3.6,6.3,16,0.00,,CLR,0.00,VWS V14.00,2013-07-23 23:26:00,
2013-07-23 16:31:00,85.1,33.9,29.41,SSE,150,2.7,5.4,16,0.00,,CLR,0.00,VWS V14.00,2013-07-23 23:31:00,
2013-07-23 16:36:00,84.9,33.8,29.41,SW,220,2.7,3.1,16,0.00,,CLR,0.00,VWS V14.00,2013-07-23 23:36:00,
2013-07-23 16:42:00,85.1,33.9,29.41,WSW,244,3.1,3.1,16,0.00,,CLR,0.00,VWS V14.00,2013-07-23 23:42:00,
2013-07-23 16:48:00,84.7,33.6,29.41,SSW,200,3.6,5.4,16,0.00,,CLR,0.00,VWS V14.00,2013-07-23 23:48:00,
2013-07-23 16:53:00,84.6,33.5,29.41,SE,146,2.7,2.7,16,0.00,,CLR,0.00,VWS V14.00,2013-07-23 23:53:00,
2013-07-23 16:59:00,84.9,33.8,29.41,SSW,213,0.0,2.7,16,0.00,,CLR,0.00,VWS V14.00,2013-07-23 23:59:00,
2013-07-23 17:04:00,85.3,34.1,29.41,West,260,0.0,0.0,16,0.00,,CLR,0.00,VWS V14.00,2013-07-24 00:04:00,
2013-07-23 17:09:00,85.3,34.1,29.41,SSW,208,3.1,3.1,16,0.00,,CLR,0.00,VWS V14.00,2013-07-24 00:09:00,
2013-07-23 17:14:00,85.1,33.9,29.41,WSW,258,0.0,2.2,16,0.00,,CLR,0.00,VWS V14.00,2013-07-24 00:14:00,
2013-07-23 17:20:00,85.1,33.9,29.41,ESE,122,2.2,2.2,16,0.00,,CLR,0.00,VWS V14.00,2013-07-24 00:20:00,
2013-07-23 17:26:00,85.1,33.9,29.41,SSW,195,0.0,2.2,16,0.00,,CLR,0.00,VWS V14.00,2013-07-24 00:26:00,
2013-07-23 17:31:00,84.6,33.5,29.41,South,191,3.1,4.0,16,0.00,,CLR,0.00,VWS V14.00,2013-07-24 00:31:00,
2013-07-23 17:37:00,84.2,33.2,29.41,South,187,2.2,3.6,16,0.00,,CLR,0.00,VWS V14.00,2013-07-24 00:37:00,
2013-07-23 17:42:00,84.0,33.0,29.41,SSW,207,2.2,2.2,16,0.00,,CLR,0.00,VWS V14.00,2013-07-24 00:42:00,
2013-07-23 17:48:00,84.0,33.0,29.41,South,180,0.0,3.1,16,0.00,,CLR,0.00,VWS V14.00,2013-07-24 00:48:00,
2013-07-23 17:55:00,84.2,33.2,29.41,NE,35,0.0,0.0,16,0.00,,CLR,0.00,VWS V14.00,2013-07-24 00:55:00,
2013-07-23 18:01:00,84.0,33.0,29.41,SW,224,5.4,5.4,16,0.00,,CLR,0.00,VWS V14.00,2013-07-24 01:01:00,
2013-07-23 18:07:00,84.0,33.0,29.41,SSE,157,2.7,2.7,16,0.00,,CLR,0.00,VWS V14.00,2013-07-24 01:07:00,
2013-07-23 18:13:00,84.0,33.0,29.41,SSE,147,0.0,2.7,16,0.00,,CLR,0.00,VWS V14.00,2013-07-24 01:13:00,
2013-07-23 18:21:00,84.2,33.2,29.41,South,181,2.7,5.8,16,0.00,,CLR,0.00,VWS V14.00,2013-07-24 01:21:00,
2013-07-23 18:26:00,83.8,32.9,29.41,SE,138,5.4,5.4,16,0.00,,CLR,0.00,VWS V14.00,2013-07-24 01:26:00,
2013-07-23 18:32:00,83.3,32.5,29.41,ESE,119,0.0,3.6,16,0.00,,CLR,0.00,VWS V14.00,2013-07-24 01:32:00,
2013-07-23 18:37:00,83.1,32.3,29.41,SE,139,0.0,2.7,16,0.00,,CLR,0.00,VWS V14.00,2013-07-24 01:37:00,
2013-07-23 18:44:00,82.8,32.0,29.41,SSE,156,0.0,2.7,16,0.00,,CLR,0.00,VWS V14.00,2013-07-24 01:44:00,
2013-07-23 18:50:00,82.8,32.0,29.41,SSW,193,4.9,6.3,16,0.00,,CLR,0.00,VWS V14.00,2013-07-24 01:50:00,
2013-07-23 18:55:00,82.8,32.0,29.41,NE,49,2.7,4.0,16,0.00,,CLR,0.00,VWS V14.00,2013-07-24 01:55:00,
2013-07-23 19:01:00,82.9,32.2,29.38,West,270,2.2,3.1,16,0.00,,CLR,0.00,VWS V14.00,2013-07-24 02:01:00,
2013-07-23 19:06:00,82.6,31.9,29.38,South,185,0.0,0.0,16,0.00,,CLR,0.00,VWS V14.00,2013-07-24 02:06:00,
2013-07-23 19:12:00,82.2,33.1,29.38,SSW,207,0.0,0.0,17,0.00,,CLR,0.00,VWS V14.00,2013-07-24 02:12:00,
2013-07-23 19:18:00,82.2,33.1,29.41,South,190,0.0,0.0,17,0.00,,CLR,0.00,VWS V14.00,2013-07-24 02:18:00,
2013-07-23 19:23:00,81.9,32.8,29.41,SW,228,0.0,0.0,17,0.00,,CLR,0.00,VWS V14.00,2013-07-24 02:23:00,
2013-07-23 19:30:00,80.8,32.0,29.41,SSW,204,0.0,0.0,17,0.00,,CLR,0.00,VWS V14.00,2013-07-24 02:30:00,
2013-07-23 19:36:00,80.1,31.4,29.41,South,189,0.0,0.0,17,0.00,,CLR,0.00,VWS V14.00,2013-07-24 02:36:00,
2013-07-23 19:41:00,79.5,30.9,29.41,South,190,0.0,0.0,17,0.00,,CLR,0.00,VWS V14.00,2013-07-24 02:41:00,
2013-07-23 19:47:00,79.2,30.6,29.41,South,187,0.0,0.0,17,0.00,,CLR,0.00,VWS V14.00,2013-07-24 02:47:00,
2013-07-23 19:53:00,78.8,30.4,29.41,SSE,149,0.0,0.0,17,0.00,,CLR,0.00,VWS V14.00,2013-07-24 02:53:00,
2013-07-23 19:58:00,78.4,31.5,29.41,SSW,201,0.0,0.0,18,0.00,,CLR,0.00,VWS V14.00,2013-07-24 02:58:00,
2013-07-23 20:05:00,77.9,31.0,29.41,SSE,152,0.0,0.0,18,0.00,,CLR,0.00,VWS V14.00,2013-07-24 03:05:00,
2013-07-23 20:10:00,77.7,30.9,29.41,SSE,168,0.0,0.0,18,0.00,,CLR,0.00,VWS V14.00,2013-07-24 03:10:00,
2013-07-23 20:15:00,77.4,30.6,29.41,SSW,202,0.0,0.0,18,0.00,,CLR,0.00,VWS V14.00,2013-07-24 03:15:00,
2013-07-23 20:21:00,76.8,30.1,29.41,SSW,202,0.0,0.0,18,0.00,,CLR,0.00,VWS V14.00,2013-07-24 03:21:00,
2013-07-23 20:26:00,76.5,29.9,29.41,South,186,0.0,2.7,18,0.00,,CLR,0.00,VWS V14.00,2013-07-24 03:26:00,
2013-07-23 20:33:00,76.1,32.2,29.38,South,186,0.0,0.0,20,0.00,,CLR,0.00,VWS V14.00,2013-07-24 03:33:00,
2013-07-23 20:39:00,75.6,31.7,29.38,South,186,0.0,0.0,20,0.00,,CLR,0.00,VWS V14.00,2013-07-24 03:39:00,
2013-07-23 20:46:00,74.8,32.3,29.41,South,186,0.0,0.0,21,0.00,,CLR,0.00,VWS V14.00,2013-07-24 03:46:00,
2013-07-23 20:51:00,74.3,31.9,29.41,South,186,0.0,0.0,21,0.00,,CLR,0.00,VWS V14.00,2013-07-24 03:51:00,
2013-07-23 20:57:00,73.4,31.1,29.41,South,186,0.0,0.0,21,0.00,,CLR,0.00,VWS V14.00,2013-07-24 03:57:00,
2013-07-23 21:01:00,72.9,31.8,29.41,South,186,0.0,0.0,22,0.00,,CLR,0.00,VWS V14.00,2013-07-24 04:01:00,
2013-07-23 21:02:00,72.7,31.7,29.41,South,186,0.0,0.0,22,0.00,,CLR,0.00,VWS V14.00,2013-07-24 04:02:00,
2013-07-23 21:03:00,72.5,31.5,29.41,South,186,0.0,0.0,22,0.00,,CLR,0.00,VWS V14.00,2013-07-24 04:03:00,
2013-07-23 21:06:00,72.0,31.1,29.41,South,186,0.0,0.0,22,0.00,,CLR,0.00,VWS V14.00,2013-07-24 04:06:00,
2013-07-23 21:11:00,71.2,31.6,29.41,South,186,0.0,0.0,23,0.00,,CLR,0.00,VWS V14.00,2013-07-24 04:11:00,
2013-07-23 21:13:00,71.1,31.4,29.41,South,186,0.0,0.0,23,0.00,,CLR,0.00,VWS V14.00,2013-07-24 04:13:00,
2013-07-23 21:18:00,70.5,31.0,29.41,South,186,0.0,0.0,23,0.00,,CLR,0.00,VWS V14.00,2013-07-24 04:18:00,
2013-07-23 21:24:00,69.8,31.4,29.41,South,186,0.0,0.0,24,0.00,,CLR,0.00,VWS V14.00,2013-07-24 04:24:00,
2013-07-23 21:29:00,69.3,32.0,29.41,South,186,0.0,0.0,25,0.00,,CLR,0.00,VWS V14.00,2013-07-24 04:29:00,
2013-07-23 21:35:00,68.7,31.5,29.41,South,186,0.0,0.0,25,0.00,,CLR,0.00,VWS V14.00,2013-07-24 04:35:00,
2013-07-23 21:40:00,68.0,31.9,29.41,South,186,0.0,0.0,26,0.00,,CLR,0.00,VWS V14.00,2013-07-24 04:40:00,
2013-07-23 21:46:00,67.3,32.2,29.41,South,186,0.0,0.0,27,0.00,,CLR,0.00,VWS V14.00,2013-07-24 04:46:00,
2013-07-23 21:51:00,66.7,33.5,29.41,South,186,0.0,0.0,29,0.00,,CLR,0.00,VWS V14.00,2013-07-24 04:51:00,
2013-07-23 21:57:00,66.4,34.0,29.41,South,186,0.0,0.0,30,0.00,,CLR,0.00,VWS V14.00,2013-07-24 04:57:00,
2013-07-23 22:03:00,66.2,35.5,29.41,South,186,0.0,0.0,32,0.00,,CLR,0.00,VWS V14.00,2013-07-24 05:03:00,
2013-07-23 22:08:00,65.8,36.0,29.41,South,186,0.0,0.0,33,0.00,,CLR,0.00,VWS V14.00,2013-07-24 05:08:00,
2013-07-23 22:14:00,65.5,35.6,29.44,South,186,0.0,0.0,33,0.00,,CLR,0.00,VWS V14.00,2013-07-24 05:14:00,
2013-07-23 22:20:00,64.9,35.2,29.44,South,186,0.0,0.0,33,0.00,,CLR,0.00,VWS V14.00,2013-07-24 05:20:00,
2013-07-23 22:25:00,64.6,35.6,29.44,South,186,0.0,0.0,34,0.00,,CLR,0.00,VWS V14.00,2013-07-24 05:25:00,
2013-07-23 22:31:00,64.4,35.5,29.44,South,186,0.0,0.0,34,0.00,,CLR,0.00,VWS V14.00,2013-07-24 05:31:00,
2013-07-23 22:36:00,64.4,35.5,29.44,South,186,0.0,0.0,34,0.00,,CLR,0.00,VWS V14.00,2013-07-24 05:36:00,
2013-07-23 22:42:00,64.2,35.3,29.44,South,186,0.0,0.0,34,0.00,,CLR,0.00,VWS V14.00,2013-07-24 05:42:00,
2013-07-23 22:48:00,64.2,35.3,29.44,South,186,0.0,0.0,34,0.00,,CLR,0.00,VWS V14.00,2013-07-24 05:48:00,
2013-07-23 22:53:00,64.0,35.1,29.44,NW,309,0.0,0.0,34,0.00,,CLR,0.00,VWS V14.00,2013-07-24 05:53:00,
2013-07-23 22:58:00,64.0,35.1,29.44,WNW,302,0.0,0.0,34,0.00,,CLR,0.00,VWS V14.00,2013-07-24 05:58:00,
2013-07-23 23:03:00,64.2,35.3,29.44,WNW,302,0.0,0.0,34,0.00,,CLR,0.00,VWS V14.00,2013-07-24 06:03:00,
2013-07-23 23:09:00,64.2,35.3,29.44,WNW,302,0.0,0.0,34,0.00,,CLR,0.00,VWS V14.00,2013-07-24 06:09:00,
2013-07-23 23:14:00,64.0,35.1,29.44,NW,309,0.0,0.0,34,0.00,,CLR,0.00,VWS V14.00,2013-07-24 06:14:00,
2013-07-23 23:20:00,63.9,35.0,29.44,NW,305,0.0,0.0,34,0.00,,CLR,0.00,VWS V14.00,2013-07-24 06:20:00,
2013-07-23 23:25:00,63.7,34.8,29.44,NW,305,0.0,0.0,34,0.00,,CLR,0.00,VWS V14.00,2013-07-24 06:25:00,
2013-07-23 23:31:00,63.5,34.7,29.44,NW,305,0.0,0.0,34,0.00,,CLR,0.00,VWS V14.00,2013-07-24 06:31:00,
2013-07-23 23:37:00,63.5,34.7,29.44,WNW,301,0.0,0.0,34,0.00,,CLR,0.00,VWS V14.00,2013-07-24 06:37:00,
2013-07-23 23:42:00,63.7,34.8,29.44,WNW,301,0.0,0.0,34,0.00,,CLR,0.00,VWS V14.00,2013-07-24 06:42:00,
2013-07-23 23:48:00,63.9,35.0,29.44,WNW,301,0.0,0.0,34,0.00,,CLR,0.00,VWS V14.00,2013-07-24 06:48:00,
2013-07-23 23:53:00,63.9,34.2,29.44,NW,304,0.0,0.0,33,0.00,,CLR,0.00,VWS V14.00,2013-07-24 06:53:00,
2013-07-23 23:59:00,64.2,34.5,29.44,NW,317,0.0,0.0,33,0.00,,CLR,0.00,VWS V14.00,2013-07-24 06:59:00,